LFLC/CFE METAR and TAF weather

Enter ICAO airport designator
Station Type Date Time Source
LFLC METAR 2021/08/05 05:00 UTC NOAA

LFLC 050500Z AUTO 19006KT 170V240 9999 SCT044 SCT150 BKN170 16/11 Q1013 NOSIG


Station Type Date Time Source
LFLC Decoded METAR 2021/08/05 05:00 UTC NOAA

Clermont-Ferrand, France (LFLC) 45-47N 003-10E 330M
Aug 05, 2021 - 01:00 AM EDT / 2021.08.05 0500 UTC
Wind: from the S (190 degrees) at 7 MPH (6 KT) (direction variable):0
Visibility: greater than 7 mile(s):0
Sky conditions: mostly cloudy
Temperature: 60 F (16 C)
Dew Point: 51 F (11 C)
Relative Humidity: 72%
Pressure (altimeter): 29.91 in. Hg (1013 hPa)
ob: LFLC 050500Z AUTO 19006KT 170V240 9999 SCT044 SCT150 BKN170 16/11 Q1013 NOSIG
cycle: 5

Station Type Date Time Source
LFLC TAF 2021/08/04 18:21 UTC NOAA

TAF LFLC 041700Z 0418/0518 25007KT 9999 SCT018 BKN040
TEMPO 0418/0502 VRB10KT 4000 SHRA SCT025TCU PROB30
TEMPO 0418/0420 VRB15G25KT -TSRA SCT030CB PROB30
TEMPO 0512/0516 -SHRA SCT070TCU

Example: see airport list